METAR Data
IDs: Format: Raw Decoded Include TAF

Data at: 1019 UTC 26 Sep 2018

KSFM 260956Z AUTO 23005KT 10SM OVC002 19/19 A3002 RMK AO2 SLP169 T01940189
KSFM 260856Z AUTO 20003KT 7SM OVC002 19/19 A3002 RMK AO2 SLP169 T01890189 56022
KSFM 260756Z AUTO 00000KT 7SM OVC002 19/19 A3005 RMK AO2 SLP178 T01890189
KSFM 260727Z AUTO 20004KT 4SM BR OVC002 19/19 A3006 RMK AO2
KSFM 260715Z AUTO 21003KT 2 1/2SM BR OVC002 19/18 A3006 RMK AO2
KSFM 260656Z AUTO VRB04KT 1 1/4SM BR OVC002 18/18 A3006 RMK AO2 SLP183 T01830183
KSFM 260648Z AUTO 21003KT 1SM BR OVC002 18/18 A3007 RMK AO2 RVRNO
KSFM 260633Z AUTO 21003KT 1 1/2SM BR OVC002 18/18 A3007 RMK AO2
KSFM 260621Z AUTO VRB03KT 2SM BR OVC002 18/18 A3008 RMK AO2
KSFM 260556Z AUTO 21003KT 1 1/4SM BR OVC002 18/18 A3009 RMK AO2 SLP192 60097 T01830183 10183 20167 57023
KSFM 260541Z AUTO VRB04KT 2SM BR OVC002 18/18 A3010 RMK AO2
KSFM 260456Z AUTO VRB04KT 5SM BR OVC002 18/18 A3011 RMK AO2 SLP199 T01830178
KSFM 260424Z AUTO 20006KT 5SM BR OVC002 18/18 A3012 RMK AO2
KSFM 260356Z AUTO 19005KT 10SM OVC004 18/18 A3014 RMK AO2 RAE53 SLP207 P0008 T01830178 401830017
KSFM 260256Z AUTO 19007KT 140V230 5SM -RA BR OVC004 18/18 A3016 RMK AO2 SLP214 P0016 60089 T01780178 58031
KSFM 260214Z AUTO VRB06KT 5SM RA BR OVC004 17/17 A3019 RMK AO2 CIG 003V007 P0004
KSFM 260156Z AUTO VRB06KT 4SM -RA BR OVC006 17/17 A3020 RMK AO2 CIG 005V012 SLP230 P0023 T01720167
KSFM 260056Z AUTO 19007KT 5SM RA BR OVC006 17/16 A3023 RMK AO2 CIG 004V011 SLP240 P0050 T01670161
KSFM 260027Z AUTO 17005KT 4SM +RA BR BKN006 OVC010 16/16 A3024 RMK AO2 CIG 004V008 P0027
KSFM 252356Z AUTO VRB03KT 3SM +RA BR OVC004 16/16 A3025 RMK AO2 SLP247 P0073 60155 T01560156 10156 20128 58030
KSFM 252348Z AUTO VRB03KT 4SM +RA BR OVC004 16/15 A3025 RMK AO2 P0064
KSFM 252337Z AUTO 12006KT 2SM +RA BR OVC004 16/15 A3025 RMK AO2 CIG 003V008 P0054
KSFM 252256Z AUTO 12007KT 090V150 4SM RA BR OVC004 16/15 A3028 RMK AO2 SLP259 P0022 T01560150
KSFM 252156Z AUTO VRB06KT 3SM RA BR OVC004 15/14 A3031 RMK AO2 SLP267 P0024 T01500144
KSFM 252056Z AUTO 13006G14KT 4SM -RA BR OVC006 15/14 A3034 RMK AO2 CIG 004V010 SLP277 P0022 60036 T01500144 58039
KSFM 251956Z AUTO 12006KT 4SM RA BR BKN008 OVC011 14/14 A3038 RMK AO2 CIG 004V009 SLP293 P0012 T01440139
KSFM 251946Z AUTO 12005KT 4SM RA BR FEW004 OVC008 14/14 A3039 RMK AO2 CIG 006V013 P0009
KSFM 251914Z AUTO 12006KT 5SM -RA BR OVC010 15/14 A3041 RMK AO2 CIG 007V013 P0004
KSFM 251904Z AUTO 11008KT 5SM RA BR OVC008 15/14 A3041 RMK AO2 CIG 007V013 P0002
KSFM 251856Z AUTO 12006KT 5SM -RA BR OVC010 15/14 A3042 RMK AO2 CIG 005V012 SLP304 P0002 T01500139
KSFM 251832Z AUTO 08004KT 10SM -RA BKN010 OVC016 14/14 A3042 RMK AO2 CIG 007V014 P0000
KSFM 251756Z AUTO 07005KT 10SM -RA OVC016 13/12 A3046 RMK AO2 SLP317 P0004 60006 T01280122 10128 20072 58030
KSFM 251656Z AUTO 36004KT 10SM -RA OVC014 12/11 A3050 RMK AO2 SLP334 P0002 T01170106
KSFM 251556Z AUTO 01004KT 10SM -RA OVC020 12/09 A3053 RMK AO2 RAB34 SLP342 P0000 T01170089
KSFM 251456Z AUTO 02004KT 10SM OVC024 12/08 A3054 RMK AO2 SLP348 T01170078 57015
KSFM 251432Z AUTO 04004KT 10SM BKN024 11/08 A3056 RMK AO2
KSFM 251356Z AUTO 02004KT 10SM CLR 10/07 A3057 RMK AO2 SLP356 T01000067
KSFM 251256Z AUTO 04007KT 10SM SCT030 08/06 A3056 RMK AO2 SLP354 T00830056
KSFM 251156Z AUTO 01004KT 10SM BKN030 07/05 A3059 RMK AO2 SLP363 T00670050 10067 20017 58004
KSFM 251056Z AUTO 00000KT 10SM CLR 05/04 A3060 RMK AO2 SLP368 T00500039
KSFM 250956Z AUTO 00000KT 10SM CLR 04/03 A3059 RMK AO2 SLP363 T00390033
KSFM 250856Z AUTO 00000KT 10SM CLR 04/03 A3060 RMK AO2 SLP366 T00390028 56012
KSFM 250756Z AUTO 00000KT 10SM CLR 02/02 A3060 RMK AO2 SLP368 T00220017 FZRANO
KSFM 250656Z AUTO 00000KT 10SM CLR 02/02 A3062 RMK AO2 SLP374 T00220017 FZRANO
KSFM 250556Z AUTO 00000KT 10SM CLR 02/02 A3063 RMK AO2 SLP377 T00220017 10039 20022 58009 FZRANO
KSFM 250456Z AUTO 00000KT 10SM CLR 02/02 A3064 RMK AO2 SLP381 T00220022 FZRANO
KSFM 250356Z AUTO 24003KT 10SM CLR 02/02 A3065 RMK AO2 SLP384 T00220022 401280022 FZRANO
KSFM 250256Z AUTO 27003KT 10SM CLR 02/02 A3066 RMK AO2 SLP387 T00220017 51005 FZRANO
KSFM 250156Z AUTO 00000KT 10SM CLR 03/02 A3066 RMK AO2 SLP386 T00280022
KSFM 250056Z AUTO 24003KT 10SM CLR 03/03 A3066 RMK AO2 SLP387 T00330028
KSFM 242356Z AUTO 00000KT 10SM CLR 04/03 A3065 RMK AO2 SLP382 T00390033 10128 20039 53009
KSFM 242256Z AUTO 00000KT 10SM CLR 06/04 A3063 RMK AO2 SLP378 T00610044